الصفحة الرئيسية
METAR-TAF:

METAR-TAF

مطار :

ماليه, جزر المالديف

دائرة عرض: 04-12N, خط طول: 073-32E, ارتفاع: 2 متر

مراقبة الطقس الحالي

تاريخ ووقت الإصدار 43 دقيقة قبل الساعة 18:00UTC
ريح 14 عقدة من الغرب/الجنوب الغربي
درجة الحرارة 30°درجة مئوية
الرطوبة 79%
ضغط 1011 hPa
الرؤية 10 كم أو أكثر
غيوم متفرقة على ارتفاع 1800 قدم, مزن ركامية عمودية.
غيوم مفككة على ارتفاع 28000 قدم

METAR: VRMM 141800Z 25014KT 9999 SCT018TCU BKN280 30/26 Q1011 NOSIG

زمن: 23:43 (18:43 UTC)

توقعات

تاريخ ووقت الإصدار 1ساعة و 43 دقيقة قبل الساعة 17:00UTC
التوقعات صالحة من14 الساعة 18 UTC إلى 15 الساعة 24 UTC
ريح 14 عقدة من الغرب/الجنوب الغربي
الرؤية 10 كم أو أكثر
غيوم قليلة على ارتفاع 1800 قدم, مزن ركامية عمودية.
مؤقت
من 14 الساعة 18 UTC إلى 14 الساعة 24 UTC
غيوم قليلة على ارتفاع 1900 قدم, مزنة ركامية.

TAF: VRMM 141700Z 1418/1524 24014KT 9999 FEW018TCU TEMPO 1418/1424 FEW019CB

أرصاد الطقس والتوقعات من أكثر من 4000 مطار (تقارير الطقس للمطار METAR والتنبؤ بالطقس بالمطارTAF).

المحطات المتاحة هي النقط الصفراء والحمراء على الخريطة.

حرك المؤشر فوق النقطة لمعرفة اسم المحطة.

ثم انقر لمعرفة أرصاد وتوقعات الطقس.

لتغيير الخارطة: اضغط على الأزرار الخضراء مع رمز الصليب الأسود للتكبير. على الزر الأخضر مع شرطة للتصغير، أو على الأسهم الخضراء للخرائط المجاورة.


METAR-TAF: